sensor_id;sensor_type;location;lat;lon;timestamp;P1;durP1;ratioP1;P2;durP2;ratioP2
34960;SDS011;30789;52.030;7.110;2023-06-24T00:01:58;7.70;;;7.00;;
34960;SDS011;30789;52.030;7.110;2023-06-24T00:04:25;9.88;;;7.57;;
34960;SDS011;30789;52.030;7.110;2023-06-24T00:06:51;11.48;;;7.78;;
34960;SDS011;30789;52.030;7.110;2023-06-24T00:09:21;9.40;;;7.82;;
34960;SDS011;30789;52.030;7.110;2023-06-24T00:11:47;9.98;;;8.13;;
34960;SDS011;30789;52.030;7.110;2023-06-24T00:14:14;11.00;;;7.65;;
34960;SDS011;30789;52.030;7.110;2023-06-24T00:16:40;9.55;;;8.55;;
34960;SDS011;30789;52.030;7.110;2023-06-24T00:19:08;9.40;;;8.27;;
34960;SDS011;30789;52.030;7.110;2023-06-24T00:21:35;10.05;;;8.60;;
34960;SDS011;30789;52.030;7.110;2023-06-24T00:24:02;10.05;;;8.77;;
34960;SDS011;30789;52.030;7.110;2023-06-24T00:26:30;10.05;;;8.90;;
34960;SDS011;30789;52.030;7.110;2023-06-24T00:28:56;10.00;;;8.93;;
34960;SDS011;30789;52.030;7.110;2023-06-24T00:31:23;9.40;;;8.50;;
34960;SDS011;30789;52.030;7.110;2023-06-24T00:33:50;9.93;;;8.65;;
34960;SDS011;30789;52.030;7.110;2023-06-24T00:36:19;11.32;;;9.30;;
34960;SDS011;30789;52.030;7.110;2023-06-24T00:38:46;10.48;;;8.52;;
34960;SDS011;30789;52.030;7.110;2023-06-24T00:41:13;12.27;;;9.48;;
34960;SDS011;30789;52.030;7.110;2023-06-24T00:43:42;12.57;;;9.60;;
34960;SDS011;30789;52.030;7.110;2023-06-24T00:46:08;11.90;;;10.10;;
34960;SDS011;30789;52.030;7.110;2023-06-24T00:48:35;10.32;;;9.27;;
34960;SDS011;30789;52.030;7.110;2023-06-24T00:51:01;11.18;;;9.63;;
34960;SDS011;30789;52.030;7.110;2023-06-24T00:53:29;9.77;;;8.70;;
34960;SDS011;30789;52.030;7.110;2023-06-24T00:55:56;10.40;;;8.55;;
34960;SDS011;30789;52.030;7.110;2023-06-24T01:00:55;10.73;;;8.25;;
34960;SDS011;30789;52.030;7.110;2023-06-24T01:03:23;10.07;;;8.88;;
34960;SDS011;30789;52.030;7.110;2023-06-24T01:05:51;9.55;;;8.57;;
34960;SDS011;30789;52.030;7.110;2023-06-24T01:08:18;9.38;;;8.35;;
34960;SDS011;30789;52.030;7.110;2023-06-24T01:10:49;9.68;;;8.63;;
34960;SDS011;30789;52.030;7.110;2023-06-24T01:13:16;10.10;;;8.93;;
34960;SDS011;30789;52.030;7.110;2023-06-24T01:15:43;12.10;;;8.85;;
34960;SDS011;30789;52.030;7.110;2023-06-24T01:18:10;11.02;;;9.05;;
34960;SDS011;30789;52.030;7.110;2023-06-24T01:20:41;10.70;;;8.40;;
34960;SDS011;30789;52.030;7.110;2023-06-24T01:23:20;12.68;;;9.25;;
34960;SDS011;30789;52.030;7.110;2023-06-24T01:26:18;12.02;;;9.35;;
34960;SDS011;30789;52.030;7.110;2023-06-24T01:28:55;10.60;;;8.60;;
34960;SDS011;30789;52.030;7.110;2023-06-24T01:31:38;11.20;;;8.90;;
34960;SDS011;30789;52.030;7.110;2023-06-24T01:36:38;12.77;;;8.70;;
34960;SDS011;30789;52.030;7.110;2023-06-24T01:39:09;10.50;;;9.10;;
34960;SDS011;30789;52.030;7.110;2023-06-24T01:41:41;10.20;;;9.15;;
34960;SDS011;30789;52.030;7.110;2023-06-24T01:44:09;9.95;;;8.63;;
34960;SDS011;30789;52.030;7.110;2023-06-24T01:46:41;12.77;;;8.27;;
34960;SDS011;30789;52.030;7.110;2023-06-24T01:49:11;10.50;;;8.77;;
34960;SDS011;30789;52.030;7.110;2023-06-24T01:51:40;10.50;;;8.65;;
34960;SDS011;30789;52.030;7.110;2023-06-24T01:54:10;12.50;;;9.02;;
34960;SDS011;30789;52.030;7.110;2023-06-24T01:56:39;11.27;;;8.55;;
34960;SDS011;30789;52.030;7.110;2023-06-24T01:59:09;12.82;;;9.18;;
34960;SDS011;30789;52.030;7.110;2023-06-24T02:01:37;9.93;;;8.93;;
34960;SDS011;30789;52.030;7.110;2023-06-24T02:04:06;12.00;;;9.23;;
34960;SDS011;30789;52.030;7.110;2023-06-24T02:06:34;10.75;;;9.32;;
34960;SDS011;30789;52.030;7.110;2023-06-24T02:09:02;11.85;;;8.95;;
34960;SDS011;30789;52.030;7.110;2023-06-24T02:11:30;11.77;;;9.27;;
34960;SDS011;30789;52.030;7.110;2023-06-24T02:14:00;11.65;;;9.20;;
34960;SDS011;30789;52.030;7.110;2023-06-24T02:16:28;12.80;;;9.85;;
34960;SDS011;30789;52.030;7.110;2023-06-24T02:18:56;11.60;;;9.93;;
34960;SDS011;30789;52.030;7.110;2023-06-24T02:21:24;11.73;;;9.98;;
34960;SDS011;30789;52.030;7.110;2023-06-24T02:23:53;14.45;;;9.40;;
34960;SDS011;30789;52.030;7.110;2023-06-24T02:26:20;13.48;;;10.38;;
34960;SDS011;30789;52.030;7.110;2023-06-24T02:28:48;12.82;;;9.50;;
34960;SDS011;30789;52.030;7.110;2023-06-24T02:31:15;16.85;;;9.35;;
34960;SDS011;30789;52.030;7.110;2023-06-24T02:33:43;12.82;;;9.85;;
34960;SDS011;30789;52.030;7.110;2023-06-24T02:36:09;12.40;;;9.70;;
34960;SDS011;30789;52.030;7.110;2023-06-24T02:38:38;13.32;;;9.80;;
34960;SDS011;30789;52.030;7.110;2023-06-24T02:41:04;14.20;;;10.25;;
34960;SDS011;30789;52.030;7.110;2023-06-24T02:43:31;12.43;;;9.32;;
34960;SDS011;30789;52.030;7.110;2023-06-24T02:45:57;12.75;;;10.13;;
34960;SDS011;30789;52.030;7.110;2023-06-24T02:48:26;12.93;;;9.98;;
34960;SDS011;30789;52.030;7.110;2023-06-24T02:50:55;11.90;;;10.38;;
34960;SDS011;30789;52.030;7.110;2023-06-24T02:53:23;14.65;;;11.30;;
34960;SDS011;30789;52.030;7.110;2023-06-24T02:55:52;11.85;;;9.52;;
34960;SDS011;30789;52.030;7.110;2023-06-24T02:58:20;13.50;;;10.02;;
34960;SDS011;30789;52.030;7.110;2023-06-24T03:00:47;12.60;;;10.32;;
34960;SDS011;30789;52.030;7.110;2023-06-24T03:03:14;15.50;;;10.27;;
34960;SDS011;30789;52.030;7.110;2023-06-24T03:05:41;16.55;;;10.52;;
34960;SDS011;30789;52.030;7.110;2023-06-24T03:08:09;11.82;;;10.10;;
34960;SDS011;30789;52.030;7.110;2023-06-24T03:10:36;16.08;;;10.32;;
34960;SDS011;30789;52.030;7.110;2023-06-24T03:13:04;11.05;;;9.95;;
34960;SDS011;30789;52.030;7.110;2023-06-24T03:15:31;10.90;;;9.45;;
34960;SDS011;30789;52.030;7.110;2023-06-24T03:17:57;17.02;;;10.93;;
34960;SDS011;30789;52.030;7.110;2023-06-24T03:20:24;14.90;;;10.50;;
34960;SDS011;30789;52.030;7.110;2023-06-24T03:22:51;12.75;;;10.18;;
34960;SDS011;30789;52.030;7.110;2023-06-24T03:25:19;12.10;;;9.35;;
34960;SDS011;30789;52.030;7.110;2023-06-24T03:27:46;10.52;;;9.38;;
34960;SDS011;30789;52.030;7.110;2023-06-24T03:30:13;15.48;;;11.30;;
34960;SDS011;30789;52.030;7.110;2023-06-24T03:32:40;12.05;;;9.95;;
34960;SDS011;30789;52.030;7.110;2023-06-24T03:35:12;13.05;;;10.02;;
34960;SDS011;30789;52.030;7.110;2023-06-24T03:37:38;13.48;;;10.15;;
34960;SDS011;30789;52.030;7.110;2023-06-24T03:40:05;13.20;;;9.18;;
34960;SDS011;30789;52.030;7.110;2023-06-24T03:42:33;15.75;;;10.00;;
34960;SDS011;30789;52.030;7.110;2023-06-24T03:44:59;13.13;;;10.18;;
34960;SDS011;30789;52.030;7.110;2023-06-24T03:47:27;15.43;;;10.23;;
34960;SDS011;30789;52.030;7.110;2023-06-24T03:49:54;12.98;;;10.50;;
34960;SDS011;30789;52.030;7.110;2023-06-24T03:52:20;12.52;;;10.52;;
34960;SDS011;30789;52.030;7.110;2023-06-24T03:54:46;12.60;;;10.80;;
34960;SDS011;30789;52.030;7.110;2023-06-24T03:57:13;14.32;;;9.88;;
34960;SDS011;30789;52.030;7.110;2023-06-24T03:59:40;15.68;;;11.13;;
34960;SDS011;30789;52.030;7.110;2023-06-24T04:02:06;13.05;;;10.68;;
34960;SDS011;30789;52.030;7.110;2023-06-24T04:04:34;16.02;;;10.52;;
34960;SDS011;30789;52.030;7.110;2023-06-24T04:07:01;14.65;;;11.00;;
34960;SDS011;30789;52.030;7.110;2023-06-24T04:09:33;15.55;;;10.48;;
34960;SDS011;30789;52.030;7.110;2023-06-24T04:12:00;13.70;;;10.23;;
34960;SDS011;30789;52.030;7.110;2023-06-24T04:14:26;14.63;;;10.07;;
34960;SDS011;30789;52.030;7.110;2023-06-24T04:16:54;14.32;;;9.93;;
34960;SDS011;30789;52.030;7.110;2023-06-24T04:19:21;13.68;;;9.95;;
34960;SDS011;30789;52.030;7.110;2023-06-24T04:21:48;16.60;;;10.15;;
34960;SDS011;30789;52.030;7.110;2023-06-24T04:24:15;13.70;;;9.57;;
34960;SDS011;30789;52.030;7.110;2023-06-24T04:26:41;13.40;;;10.20;;
34960;SDS011;30789;52.030;7.110;2023-06-24T04:29:08;13.55;;;9.77;;
34960;SDS011;30789;52.030;7.110;2023-06-24T04:31:34;15.90;;;10.48;;
34960;SDS011;30789;52.030;7.110;2023-06-24T04:34:00;15.93;;;10.35;;
34960;SDS011;30789;52.030;7.110;2023-06-24T04:36:27;12.27;;;10.23;;
34960;SDS011;30789;52.030;7.110;2023-06-24T04:38:55;15.18;;;10.43;;
34960;SDS011;30789;52.030;7.110;2023-06-24T04:41:21;12.32;;;10.13;;
34960;SDS011;30789;52.030;7.110;2023-06-24T04:43:48;12.52;;;10.18;;
34960;SDS011;30789;52.030;7.110;2023-06-24T04:46:14;13.95;;;10.35;;
34960;SDS011;30789;52.030;7.110;2023-06-24T04:48:41;11.10;;;9.13;;
34960;SDS011;30789;52.030;7.110;2023-06-24T04:51:07;11.10;;;9.52;;
34960;SDS011;30789;52.030;7.110;2023-06-24T04:53:34;11.73;;;9.57;;
34960;SDS011;30789;52.030;7.110;2023-06-24T04:56:02;12.50;;;9.02;;
34960;SDS011;30789;52.030;7.110;2023-06-24T04:58:28;14.00;;;10.40;;
34960;SDS011;30789;52.030;7.110;2023-06-24T05:00:55;13.95;;;10.45;;
34960;SDS011;30789;52.030;7.110;2023-06-24T05:03:21;13.70;;;10.85;;
34960;SDS011;30789;52.030;7.110;2023-06-24T05:05:48;12.80;;;11.02;;
34960;SDS011;30789;52.030;7.110;2023-06-24T05:08:14;13.25;;;10.13;;
34960;SDS011;30789;52.030;7.110;2023-06-24T05:10:41;15.05;;;11.15;;
34960;SDS011;30789;52.030;7.110;2023-06-24T05:13:08;13.90;;;10.45;;
34960;SDS011;30789;52.030;7.110;2023-06-24T05:15:35;15.10;;;11.73;;
34960;SDS011;30789;52.030;7.110;2023-06-24T05:18:01;16.10;;;11.15;;
34960;SDS011;30789;52.030;7.110;2023-06-24T05:20:28;16.52;;;11.65;;
34960;SDS011;30789;52.030;7.110;2023-06-24T05:22:54;16.88;;;11.57;;
34960;SDS011;30789;52.030;7.110;2023-06-24T05:25:21;19.45;;;12.50;;
34960;SDS011;30789;52.030;7.110;2023-06-24T05:27:48;17.35;;;12.18;;
34960;SDS011;30789;52.030;7.110;2023-06-24T05:30:16;15.02;;;11.60;;
34960;SDS011;30789;52.030;7.110;2023-06-24T05:32:43;17.85;;;12.82;;
34960;SDS011;30789;52.030;7.110;2023-06-24T05:35:09;15.25;;;12.52;;
34960;SDS011;30789;52.030;7.110;2023-06-24T05:37:36;16.33;;;11.85;;
34960;SDS011;30789;52.030;7.110;2023-06-24T05:40:03;16.15;;;11.90;;
34960;SDS011;30789;52.030;7.110;2023-06-24T05:42:31;13.82;;;11.15;;
34960;SDS011;30789;52.030;7.110;2023-06-24T05:44:58;13.80;;;11.52;;
34960;SDS011;30789;52.030;7.110;2023-06-24T05:47:26;15.40;;;10.52;;
34960;SDS011;30789;52.030;7.110;2023-06-24T05:49:53;14.05;;;10.38;;
34960;SDS011;30789;52.030;7.110;2023-06-24T05:52:19;13.35;;;9.82;;
34960;SDS011;30789;52.030;7.110;2023-06-24T05:54:45;13.68;;;10.18;;
34960;SDS011;30789;52.030;7.110;2023-06-24T05:57:12;12.90;;;10.57;;
34960;SDS011;30789;52.030;7.110;2023-06-24T05:59:38;13.05;;;10.45;;
34960;SDS011;30789;52.030;7.110;2023-06-24T06:02:05;13.30;;;9.80;;
34960;SDS011;30789;52.030;7.110;2023-06-24T06:04:33;11.88;;;9.68;;
34960;SDS011;30789;52.030;7.110;2023-06-24T06:06:59;14.32;;;10.25;;
34960;SDS011;30789;52.030;7.110;2023-06-24T06:09:26;15.77;;;10.10;;
34960;SDS011;30789;52.030;7.110;2023-06-24T06:11:52;13.95;;;10.18;;
34960;SDS011;30789;52.030;7.110;2023-06-24T06:14:19;12.73;;;9.43;;
34960;SDS011;30789;52.030;7.110;2023-06-24T06:16:45;14.90;;;9.60;;
34960;SDS011;30789;52.030;7.110;2023-06-24T06:19:12;13.68;;;9.10;;
34960;SDS011;30789;52.030;7.110;2023-06-24T06:21:39;12.13;;;9.63;;
34960;SDS011;30789;52.030;7.110;2023-06-24T06:24:06;14.23;;;9.20;;
34960;SDS011;30789;52.030;7.110;2023-06-24T06:26:33;12.18;;;8.93;;
34960;SDS011;30789;52.030;7.110;2023-06-24T06:28:59;10.38;;;8.90;;
34960;SDS011;30789;52.030;7.110;2023-06-24T06:31:26;13.57;;;9.65;;
34960;SDS011;30789;52.030;7.110;2023-06-24T06:33:52;10.65;;;8.70;;
34960;SDS011;30789;52.030;7.110;2023-06-24T06:36:19;10.82;;;8.77;;
34960;SDS011;30789;52.030;7.110;2023-06-24T06:38:47;10.27;;;8.65;;
34960;SDS011;30789;52.030;7.110;2023-06-24T06:41:13;12.63;;;8.52;;
34960;SDS011;30789;52.030;7.110;2023-06-24T06:43:40;9.98;;;8.30;;
34960;SDS011;30789;52.030;7.110;2023-06-24T06:46:06;12.18;;;9.07;;
34960;SDS011;30789;52.030;7.110;2023-06-24T06:48:32;10.63;;;8.63;;
34960;SDS011;30789;52.030;7.110;2023-06-24T06:50:59;9.68;;;8.68;;
34960;SDS011;30789;52.030;7.110;2023-06-24T06:53:25;11.48;;;8.57;;
34960;SDS011;30789;52.030;7.110;2023-06-24T06:55:53;10.52;;;9.10;;
34960;SDS011;30789;52.030;7.110;2023-06-24T06:58:20;15.38;;;9.50;;
34960;SDS011;30789;52.030;7.110;2023-06-24T07:00:46;12.68;;;9.77;;
34960;SDS011;30789;52.030;7.110;2023-06-24T07:03:13;12.05;;;9.73;;
34960;SDS011;30789;52.030;7.110;2023-06-24T07:05:39;12.77;;;10.05;;
34960;SDS011;30789;52.030;7.110;2023-06-24T07:08:06;14.38;;;10.05;;
34960;SDS011;30789;52.030;7.110;2023-06-24T07:10:32;14.55;;;10.57;;
34960;SDS011;30789;52.030;7.110;2023-06-24T07:13:00;12.68;;;9.60;;
34960;SDS011;30789;52.030;7.110;2023-06-24T07:15:27;12.88;;;9.60;;
34960;SDS011;30789;52.030;7.110;2023-06-24T07:17:54;13.38;;;10.35;;
34960;SDS011;30789;52.030;7.110;2023-06-24T07:20:21;12.80;;;8.90;;
34960;SDS011;30789;52.030;7.110;2023-06-24T07:22:48;15.77;;;9.27;;
34960;SDS011;30789;52.030;7.110;2023-06-24T07:25:14;11.02;;;9.77;;
34960;SDS011;30789;52.030;7.110;2023-06-24T07:27:41;11.93;;;9.13;;
34960;SDS011;30789;52.030;7.110;2023-06-24T07:30:09;14.77;;;9.30;;
34960;SDS011;30789;52.030;7.110;2023-06-24T07:32:36;13.38;;;9.07;;
34960;SDS011;30789;52.030;7.110;2023-06-24T07:35:02;14.73;;;9.68;;
34960;SDS011;30789;52.030;7.110;2023-06-24T07:37:29;11.73;;;9.23;;
34960;SDS011;30789;52.030;7.110;2023-06-24T07:39:56;15.70;;;9.32;;
34960;SDS011;30789;52.030;7.110;2023-06-24T07:42:22;11.90;;;9.15;;
34960;SDS011;30789;52.030;7.110;2023-06-24T07:44:49;14.15;;;9.32;;
34960;SDS011;30789;52.030;7.110;2023-06-24T07:47:17;10.95;;;8.27;;
34960;SDS011;30789;52.030;7.110;2023-06-24T07:49:44;12.85;;;9.57;;
34960;SDS011;30789;52.030;7.110;2023-06-24T07:52:10;13.10;;;9.48;;
34960;SDS011;30789;52.030;7.110;2023-06-24T07:54:37;13.18;;;10.13;;
34960;SDS011;30789;52.030;7.110;2023-06-24T07:57:03;12.68;;;8.98;;
34960;SDS011;30789;52.030;7.110;2023-06-24T07:59:30;10.57;;;8.60;;
34960;SDS011;30789;52.030;7.110;2023-06-24T08:01:56;9.38;;;7.93;;
34960;SDS011;30789;52.030;7.110;2023-06-24T08:04:24;8.98;;;8.10;;
34960;SDS011;30789;52.030;7.110;2023-06-24T08:06:51;10.35;;;8.70;;
34960;SDS011;30789;52.030;7.110;2023-06-24T08:09:18;10.02;;;7.85;;
34960;SDS011;30789;52.030;7.110;2023-06-24T08:11:45;11.80;;;9.93;;
34960;SDS011;30789;52.030;7.110;2023-06-24T08:14:11;15.15;;;8.93;;
34960;SDS011;30789;52.030;7.110;2023-06-24T08:16:37;12.40;;;8.90;;
34960;SDS011;30789;52.030;7.110;2023-06-24T08:19:04;11.52;;;9.15;;
34960;SDS011;30789;52.030;7.110;2023-06-24T08:21:32;10.93;;;8.80;;
34960;SDS011;30789;52.030;7.110;2023-06-24T08:23:59;13.07;;;8.70;;
34960;SDS011;30789;52.030;7.110;2023-06-24T08:26:26;13.30;;;9.18;;
34960;SDS011;30789;52.030;7.110;2023-06-24T08:28:52;12.68;;;8.75;;
34960;SDS011;30789;52.030;7.110;2023-06-24T08:31:18;11.60;;;8.82;;
34960;SDS011;30789;52.030;7.110;2023-06-24T08:33:47;15.88;;;9.05;;
34960;SDS011;30789;52.030;7.110;2023-06-24T08:36:18;11.73;;;10.25;;
34960;SDS011;30789;52.030;7.110;2023-06-24T08:38:46;11.77;;;9.70;;
34960;SDS011;30789;52.030;7.110;2023-06-24T08:41:12;10.15;;;9.13;;
34960;SDS011;30789;52.030;7.110;2023-06-24T08:43:39;13.13;;;9.38;;
34960;SDS011;30789;52.030;7.110;2023-06-24T08:46:07;10.43;;;8.88;;
34960;SDS011;30789;52.030;7.110;2023-06-24T08:48:34;11.70;;;8.75;;
34960;SDS011;30789;52.030;7.110;2023-06-24T08:51:05;10.30;;;8.93;;
34960;SDS011;30789;52.030;7.110;2023-06-24T08:53:34;11.00;;;8.82;;
34960;SDS011;30789;52.030;7.110;2023-06-24T08:56:05;15.23;;;9.40;;
34960;SDS011;30789;52.030;7.110;2023-06-24T08:58:32;13.10;;;9.20;;
34960;SDS011;30789;52.030;7.110;2023-06-24T09:00:59;13.38;;;9.20;;
34960;SDS011;30789;52.030;7.110;2023-06-24T09:03:26;12.13;;;9.75;;
34960;SDS011;30789;52.030;7.110;2023-06-24T09:05:52;14.68;;;10.93;;
34960;SDS011;30789;52.030;7.110;2023-06-24T09:08:19;12.90;;;10.60;;
34960;SDS011;30789;52.030;7.110;2023-06-24T09:10:46;14.60;;;12.27;;
34960;SDS011;30789;52.030;7.110;2023-06-24T09:13:20;15.00;;;10.35;;
34960;SDS011;30789;52.030;7.110;2023-06-24T09:15:48;18.35;;;13.60;;
34960;SDS011;30789;52.030;7.110;2023-06-24T09:18:15;16.15;;;12.77;;
34960;SDS011;30789;52.030;7.110;2023-06-24T09:20:42;20.10;;;14.93;;
34960;SDS011;30789;52.030;7.110;2023-06-24T09:23:10;16.45;;;13.30;;
34960;SDS011;30789;52.030;7.110;2023-06-24T09:25:37;18.58;;;12.80;;
34960;SDS011;30789;52.030;7.110;2023-06-24T09:28:04;17.25;;;13.23;;
34960;SDS011;30789;52.030;7.110;2023-06-24T09:30:31;17.00;;;12.23;;
34960;SDS011;30789;52.030;7.110;2023-06-24T09:32:58;13.55;;;11.80;;
34960;SDS011;30789;52.030;7.110;2023-06-24T09:35:25;15.65;;;13.68;;
34960;SDS011;30789;52.030;7.110;2023-06-24T09:37:52;16.55;;;11.88;;
34960;SDS011;30789;52.030;7.110;2023-06-24T09:40:19;14.63;;;12.35;;
34960;SDS011;30789;52.030;7.110;2023-06-24T09:42:49;15.88;;;11.52;;
34960;SDS011;30789;52.030;7.110;2023-06-24T09:45:19;13.95;;;9.82;;
34960;SDS011;30789;52.030;7.110;2023-06-24T09:47:48;16.52;;;10.77;;
34960;SDS011;30789;52.030;7.110;2023-06-24T09:50:15;12.63;;;9.75;;
34960;SDS011;30789;52.030;7.110;2023-06-24T09:52:42;15.63;;;11.00;;
34960;SDS011;30789;52.030;7.110;2023-06-24T09:55:11;17.25;;;10.95;;
34960;SDS011;30789;52.030;7.110;2023-06-24T09:57:39;13.73;;;11.55;;
34960;SDS011;30789;52.030;7.110;2023-06-24T10:00:08;13.20;;;10.65;;
34960;SDS011;30789;52.030;7.110;2023-06-24T10:02:36;13.63;;;10.52;;
34960;SDS011;30789;52.030;7.110;2023-06-24T10:05:05;12.98;;;10.80;;
34960;SDS011;30789;52.030;7.110;2023-06-24T10:07:32;12.48;;;10.57;;
34960;SDS011;30789;52.030;7.110;2023-06-24T10:10:01;10.25;;;9.15;;
34960;SDS011;30789;52.030;7.110;2023-06-24T10:12:27;9.70;;;8.48;;
34960;SDS011;30789;52.030;7.110;2023-06-24T10:14:54;9.85;;;7.47;;
34960;SDS011;30789;52.030;7.110;2023-06-24T10:17:21;10.13;;;7.70;;
34960;SDS011;30789;52.030;7.110;2023-06-24T10:19:47;13.02;;;10.27;;
34960;SDS011;30789;52.030;7.110;2023-06-24T10:22:15;8.95;;;7.57;;
34960;SDS011;30789;52.030;7.110;2023-06-24T10:24:42;11.90;;;7.90;;
34960;SDS011;30789;52.030;7.110;2023-06-24T10:29:40;8.18;;;7.35;;
34960;SDS011;30789;52.030;7.110;2023-06-24T10:32:11;9.43;;;6.93;;
34960;SDS011;30789;52.030;7.110;2023-06-24T10:34:39;9.45;;;7.15;;
34960;SDS011;30789;52.030;7.110;2023-06-24T10:37:11;8.40;;;6.88;;
34960;SDS011;30789;52.030;7.110;2023-06-24T10:39:47;8.90;;;6.00;;
34960;SDS011;30789;52.030;7.110;2023-06-24T10:42:28;11.30;;;7.78;;
34960;SDS011;30789;52.030;7.110;2023-06-24T10:44:59;12.43;;;7.35;;
34960;SDS011;30789;52.030;7.110;2023-06-24T10:47:28;9.73;;;7.13;;
34960;SDS011;30789;52.030;7.110;2023-06-24T10:49:55;8.60;;;7.15;;
34960;SDS011;30789;52.030;7.110;2023-06-24T10:52:22;7.35;;;6.63;;
34960;SDS011;30789;52.030;7.110;2023-06-24T10:54:51;6.88;;;5.38;;
34960;SDS011;30789;52.030;7.110;2023-06-24T10:57:22;7.18;;;6.03;;
34960;SDS011;30789;52.030;7.110;2023-06-24T11:02:17;8.30;;;6.85;;
34960;SDS011;30789;52.030;7.110;2023-06-24T11:04:45;10.90;;;7.13;;
34960;SDS011;30789;52.030;7.110;2023-06-24T11:07:12;9.38;;;7.03;;
34960;SDS011;30789;52.030;7.110;2023-06-24T11:09:40;9.00;;;7.35;;
34960;SDS011;30789;52.030;7.110;2023-06-24T11:12:09;7.50;;;6.70;;
34960;SDS011;30789;52.030;7.110;2023-06-24T11:14:37;6.97;;;5.20;;
34960;SDS011;30789;52.030;7.110;2023-06-24T11:17:04;7.85;;;4.75;;
34960;SDS011;30789;52.030;7.110;2023-06-24T11:19:31;7.18;;;4.68;;
34960;SDS011;30789;52.030;7.110;2023-06-24T11:22:00;4.95;;;4.43;;
34960;SDS011;30789;52.030;7.110;2023-06-24T11:24:27;4.47;;;4.07;;
34960;SDS011;30789;52.030;7.110;2023-06-24T11:26:54;8.70;;;4.72;;
34960;SDS011;30789;52.030;7.110;2023-06-24T11:29:22;5.95;;;3.72;;
34960;SDS011;30789;52.030;7.110;2023-06-24T11:31:49;4.53;;;3.10;;
34960;SDS011;30789;52.030;7.110;2023-06-24T11:34:16;5.40;;;3.92;;
34960;SDS011;30789;52.030;7.110;2023-06-24T11:36:43;5.32;;;3.78;;
34960;SDS011;30789;52.030;7.110;2023-06-24T11:39:19;4.18;;;3.67;;
34960;SDS011;30789;52.030;7.110;2023-06-24T11:41:46;4.45;;;4.00;;
34960;SDS011;30789;52.030;7.110;2023-06-24T11:44:13;3.55;;;3.25;;
34960;SDS011;30789;52.030;7.110;2023-06-24T11:46:41;4.80;;;3.33;;
34960;SDS011;30789;52.030;7.110;2023-06-24T11:49:08;4.63;;;3.30;;
34960;SDS011;30789;52.030;7.110;2023-06-24T11:51:35;3.80;;;3.40;;
34960;SDS011;30789;52.030;7.110;2023-06-24T11:54:03;3.92;;;3.28;;
34960;SDS011;30789;52.030;7.110;2023-06-24T11:56:34;4.00;;;3.60;;
34960;SDS011;30789;52.030;7.110;2023-06-24T11:59:03;3.45;;;3.15;;
34960;SDS011;30789;52.030;7.110;2023-06-24T12:01:30;4.60;;;2.72;;
34960;SDS011;30789;52.030;7.110;2023-06-24T12:03:59;4.10;;;3.60;;
34960;SDS011;30789;52.030;7.110;2023-06-24T12:06:26;3.53;;;3.22;;
34960;SDS011;30789;52.030;7.110;2023-06-24T12:08:52;4.10;;;3.00;;
34960;SDS011;30789;52.030;7.110;2023-06-24T12:11:19;2.83;;;2.55;;
34960;SDS011;30789;52.030;7.110;2023-06-24T12:13:45;5.45;;;3.08;;
34960;SDS011;30789;52.030;7.110;2023-06-24T12:16:12;3.97;;;2.70;;
34960;SDS011;30789;52.030;7.110;2023-06-24T12:18:38;4.30;;;3.40;;
34960;SDS011;30789;52.030;7.110;2023-06-24T12:21:06;3.15;;;2.30;;
34960;SDS011;30789;52.030;7.110;2023-06-24T12:23:33;3.42;;;3.13;;
34960;SDS011;30789;52.030;7.110;2023-06-24T12:25:59;4.07;;;3.20;;
34960;SDS011;30789;52.030;7.110;2023-06-24T12:28:26;5.10;;;3.08;;
34960;SDS011;30789;52.030;7.110;2023-06-24T12:30:52;3.47;;;3.17;;
34960;SDS011;30789;52.030;7.110;2023-06-24T12:33:19;3.60;;;2.95;;
34960;SDS011;30789;52.030;7.110;2023-06-24T12:35:47;3.97;;;2.80;;
34960;SDS011;30789;52.030;7.110;2023-06-24T12:38:15;6.38;;;3.28;;
34960;SDS011;30789;52.030;7.110;2023-06-24T12:40:42;3.10;;;2.80;;
34960;SDS011;30789;52.030;7.110;2023-06-24T12:43:10;2.30;;;1.90;;
34960;SDS011;30789;52.030;7.110;2023-06-24T12:45:36;4.30;;;2.33;;
34960;SDS011;30789;52.030;7.110;2023-06-24T12:48:03;2.78;;;2.35;;
34960;SDS011;30789;52.030;7.110;2023-06-24T12:50:30;4.15;;;2.25;;
34960;SDS011;30789;52.030;7.110;2023-06-24T12:52:56;2.33;;;2.10;;
34960;SDS011;30789;52.030;7.110;2023-06-24T12:55:24;3.08;;;2.35;;
34960;SDS011;30789;52.030;7.110;2023-06-24T12:57:51;3.03;;;2.40;;
34960;SDS011;30789;52.030;7.110;2023-06-24T13:00:19;3.20;;;2.35;;
34960;SDS011;30789;52.030;7.110;2023-06-24T13:02:46;2.40;;;2.20;;
34960;SDS011;30789;52.030;7.110;2023-06-24T13:05:13;3.65;;;2.42;;
34960;SDS011;30789;52.030;7.110;2023-06-24T13:07:40;3.65;;;2.50;;
34960;SDS011;30789;52.030;7.110;2023-06-24T13:10:07;2.75;;;2.28;;
34960;SDS011;30789;52.030;7.110;2023-06-24T13:12:36;2.58;;;2.30;;
34960;SDS011;30789;52.030;7.110;2023-06-24T13:15:04;4.10;;;2.80;;
34960;SDS011;30789;52.030;7.110;2023-06-24T13:17:31;3.28;;;2.97;;
34960;SDS011;30789;52.030;7.110;2023-06-24T13:19:58;2.80;;;2.40;;
34960;SDS011;30789;52.030;7.110;2023-06-24T13:22:26;3.65;;;2.95;;
34960;SDS011;30789;52.030;7.110;2023-06-24T13:24:53;3.40;;;2.33;;
34960;SDS011;30789;52.030;7.110;2023-06-24T13:27:19;4.65;;;2.33;;
34960;SDS011;30789;52.030;7.110;2023-06-24T13:29:47;5.68;;;2.72;;
34960;SDS011;30789;52.030;7.110;2023-06-24T13:32:14;4.97;;;2.53;;
34960;SDS011;30789;52.030;7.110;2023-06-24T13:34:41;2.80;;;2.20;;
34960;SDS011;30789;52.030;7.110;2023-06-24T13:37:07;2.63;;;2.10;;
34960;SDS011;30789;52.030;7.110;2023-06-24T13:39:34;3.95;;;2.70;;
34960;SDS011;30789;52.030;7.110;2023-06-24T13:42:01;4.28;;;2.40;;
34960;SDS011;30789;52.030;7.110;2023-06-24T13:44:27;3.17;;;2.70;;
34960;SDS011;30789;52.030;7.110;2023-06-24T13:46:55;4.10;;;2.20;;
34960;SDS011;30789;52.030;7.110;2023-06-24T13:49:21;3.42;;;2.38;;
34960;SDS011;30789;52.030;7.110;2023-06-24T13:51:48;2.40;;;1.92;;
34960;SDS011;30789;52.030;7.110;2023-06-24T13:54:15;3.30;;;2.63;;
34960;SDS011;30789;52.030;7.110;2023-06-24T13:56:41;2.60;;;2.33;;
34960;SDS011;30789;52.030;7.110;2023-06-24T13:59:07;5.65;;;2.95;;
34960;SDS011;30789;52.030;7.110;2023-06-24T14:01:35;4.13;;;2.58;;
34960;SDS011;30789;52.030;7.110;2023-06-24T14:04:03;3.33;;;2.40;;
34960;SDS011;30789;52.030;7.110;2023-06-24T14:06:30;2.38;;;2.00;;
34960;SDS011;30789;52.030;7.110;2023-06-24T14:08:56;3.45;;;2.25;;
34960;SDS011;30789;52.030;7.110;2023-06-24T14:11:23;2.67;;;2.17;;
34960;SDS011;30789;52.030;7.110;2023-06-24T14:13:49;3.38;;;2.17;;
34960;SDS011;30789;52.030;7.110;2023-06-24T14:16:16;3.63;;;2.47;;
34960;SDS011;30789;52.030;7.110;2023-06-24T14:18:42;2.97;;;2.67;;
34960;SDS011;30789;52.030;7.110;2023-06-24T14:21:11;4.63;;;2.40;;
34960;SDS011;30789;52.030;7.110;2023-06-24T14:23:37;3.72;;;2.53;;
34960;SDS011;30789;52.030;7.110;2023-06-24T14:26:05;3.05;;;2.38;;
34960;SDS011;30789;52.030;7.110;2023-06-24T14:28:31;3.22;;;2.20;;
34960;SDS011;30789;52.030;7.110;2023-06-24T14:30:58;2.92;;;2.42;;
34960;SDS011;30789;52.030;7.110;2023-06-24T14:33:24;3.28;;;2.25;;
34960;SDS011;30789;52.030;7.110;2023-06-24T14:35:51;2.40;;;2.10;;
34960;SDS011;30789;52.030;7.110;2023-06-24T14:38:19;4.28;;;2.83;;
34960;SDS011;30789;52.030;7.110;2023-06-24T14:40:46;4.43;;;2.88;;
34960;SDS011;30789;52.030;7.110;2023-06-24T14:43:12;3.42;;;2.90;;
34960;SDS011;30789;52.030;7.110;2023-06-24T14:45:39;4.35;;;2.90;;
34960;SDS011;30789;52.030;7.110;2023-06-24T14:48:05;3.60;;;2.85;;